Time;durP1;ratioP1;P1;durP2;ratioP2;P2;SDS_P1;SDS_P2;PMS_P1;PMS_P2;Temp;Humidity;BMP_temperature;BMP_pressure;BME280_temperature;BME280_humidity;BME280_pressure;Samples;Min_cycle;Max_cycle;Signal;HPM_P1;HPM_P2
2022/06/15 00:01:17;;;;;;;3.05;1.30;;;;;;;13.10;69.52;101382.66;5005223;28;20553;-82
2022/06/15 00:03:43;;;;;;;4.00;1.42;;;;;;;13.06;69.45;101383.56;5005003;28;20052;-83
2022/06/15 00:06:23;;;;;;;6.15;1.70;;;;;;;13.04;69.89;101385.34;5001708;28;20038;-82
2022/06/15 00:08:55;;;;;;;4.43;1.70;;;;;;;13.01;70.31;101381.00;5000718;28;20080;-86
2022/06/15 00:11:32;;;;;;;5.70;2.00;;;;;;;12.98;70.12;101380.13;4998786;28;20049;-85
2022/06/15 00:14:04;;;;;;;3.50;1.80;;;;;;;12.96;70.36;101382.78;5004418;28;20455;-82
2022/06/15 00:16:31;;;;;;;2.95;1.75;;;;;;;12.96;70.58;101385.41;5013971;28;20038;-84
2022/06/15 00:18:58;;;;;;;4.13;2.38;;;;;;;12.95;70.69;101374.91;5004424;28;20049;-86
2022/06/15 00:21:24;;;;;;;6.25;1.63;;;;;;;12.91;70.56;101368.81;4984211;28;20071;-82
2022/06/15 00:23:52;;;;;;;3.72;1.45;;;;;;;12.89;70.97;101368.81;4985182;28;20043;-84
2022/06/15 00:26:19;;;;;;;5.55;2.10;;;;;;;12.87;70.98;101367.94;5002244;28;20377;-82
2022/06/15 00:28:46;;;;;;;5.22;2.30;;;;;;;12.85;70.94;101364.47;4998812;28;20038;-80
2022/06/15 00:31:13;;;;;;;3.90;2.35;;;;;;;12.82;71.17;101359.22;5005065;28;20052;-84
2022/06/15 00:33:40;;;;;;;3.38;1.55;;;;;;;12.79;71.22;101360.97;5004735;28;20038;-82
2022/06/15 00:36:13;;;;;;;3.50;2.08;;;;;;;12.77;71.45;101360.13;5002344;28;20121;-85
2022/06/15 00:38:52;;;;;;;2.38;1.65;;;;;;;12.73;71.75;101369.78;4996902;28;20038;-81
2022/06/15 00:41:28;;;;;;;5.05;1.65;;;;;;;12.68;72.21;101364.56;5002976;28;20052;-83
2022/06/15 00:44:02;;;;;;;9.02;2.60;;;;;;;12.63;71.99;101361.09;4977418;28;20402;-84
2022/06/15 00:46:41;;;;;;;8.15;2.05;;;;;;;12.61;72.42;101354.13;4988650;28;20157;-84
2022/06/15 00:49:37;;;;;;;8.82;3.17;;;;;;;12.60;72.53;101352.38;5023388;28;20037;-84
2022/06/15 00:52:12;;;;;;;4.22;1.77;;;;;;;12.55;72.62;101360.25;5013636;28;20059;-85
2022/06/15 00:54:41;;;;;;;3.83;1.73;;;;;;;12.55;72.78;101355.00;5015537;28;20116;-83
2022/06/15 00:57:07;;;;;;;5.68;2.10;;;;;;;12.53;73.39;101356.78;5011803;28;20073;-85
2022/06/15 01:00:00;;;;;;;4.22;1.85;;;;;;;12.53;73.22;101344.53;5022662;28;20041;-84
2022/06/15 01:02:29;;;;;;;7.70;1.80;;;;;;;12.53;73.14;101349.78;5026892;28;20154;-86
2022/06/15 01:05:09;;;;;;;3.88;2.00;;;;;;;12.49;73.19;101347.16;5030136;28;20039;-86
2022/06/15 01:08:07;;;;;;;7.20;1.98;;;;;;;12.42;73.73;101346.31;5042728;28;20045;-84
2022/06/15 01:11:14;;;;;;;6.75;2.00;;;;;;;12.38;73.84;101342.88;5002469;28;20111;-82
2022/06/15 01:14:02;;;;;;;3.88;2.25;;;;;;;12.34;74.57;101342.88;5006442;28;20071;-82
2022/06/15 01:16:37;;;;;;;6.40;2.10;;;;;;;12.31;74.44;101348.16;5005960;28;20097;-81
2022/06/15 01:19:32;;;;;;;2.25;1.80;;;;;;;12.31;74.74;101346.41;5004155;28;20480;-84
2022/06/15 01:22:37;;;;;;;5.82;2.03;;;;;;;12.31;75.17;101354.25;5004585;28;20043;-84
2022/06/15 01:25:12;;;;;;;6.75;2.55;;;;;;;12.29;74.69;101349.91;5003298;28;20204;-84
2022/06/15 01:28:09;;;;;;;5.65;2.00;;;;;;;12.28;74.89;101350.78;5022955;28;20053;-86
2022/06/15 01:30:54;;;;;;;5.20;2.20;;;;;;;12.27;75.10;101354.28;5022970;28;20547;-84
2022/06/15 01:34:03;;;;;;;6.10;1.77;;;;;;;12.27;75.07;101351.66;5004643;28;20052;-83
2022/06/15 01:37:05;;;;;;;5.57;2.45;;;;;;;12.26;75.19;101347.31;5006806;28;20049;-83
2022/06/15 01:39:51;;;;;;;2.15;1.88;;;;;;;12.23;75.00;101353.44;4993809;28;20045;-82
2022/06/15 01:42:31;;;;;;;7.80;2.58;;;;;;;12.18;75.67;101353.44;4988564;28;20484;-84
2022/06/15 01:45:06;;;;;;;5.05;2.08;;;;;;;12.15;76.13;101350.84;5021583;28;20044;-83
2022/06/15 01:47:35;;;;;;;2.00;1.77;;;;;;;12.10;76.08;101355.25;5004004;28;20052;-84
2022/06/15 01:50:18;;;;;;;5.38;2.00;;;;;;;12.10;76.03;101349.09;4987620;28;20055;-83
2022/06/15 01:52:56;;;;;;;4.88;2.13;;;;;;;12.08;76.44;101350.00;5007258;28;20062;-82
2022/06/15 01:55:33;;;;;;;5.55;1.98;;;;;;;12.06;76.06;101346.50;5025817;28;20041;-83
2022/06/15 01:58:06;;;;;;;5.22;2.08;;;;;;;12.04;76.46;101339.50;5006490;28;20041;-83
2022/06/15 02:00:33;;;;;;;2.15;1.80;;;;;;;12.01;76.64;101332.53;5011302;28;20034;-83
2022/06/15 02:03:31;;;;;;;3.22;1.88;;;;;;;11.94;77.06;101330.75;5004221;28;20107;-83
2022/06/15 02:06:29;;;;;;;5.15;2.42;;;;;;;11.89;77.11;101329.94;5001529;28;20044;-83
2022/06/15 02:09:09;;;;;;;5.88;2.17;;;;;;;11.87;77.15;101326.44;5009602;28;20106;-82
2022/06/15 02:11:40;;;;;;;5.57;2.38;;;;;;;11.85;77.40;101328.16;5014250;28;20472;-81
2022/06/15 02:14:17;;;;;;;4.75;2.50;;;;;;;11.80;77.85;101336.06;4997656;28;20073;-85
2022/06/15 02:16:52;;;;;;;6.30;2.75;;;;;;;11.79;78.55;101326.44;4990909;28;20137;-84
2022/06/15 02:19:32;;;;;;;5.03;1.98;;;;;;;11.80;77.77;101335.19;4991315;28;20064;-83
2022/06/15 02:22:08;;;;;;;3.13;2.33;;;;;;;11.79;77.83;101336.09;5005931;28;20056;-85
2022/06/15 02:24:36;;;;;;;4.10;2.05;;;;;;;11.78;78.00;101337.81;5015254;28;20171;-83
2022/06/15 02:27:09;;;;;;;3.80;2.10;;;;;;;11.75;78.07;101327.34;5008952;28;20038;-83
2022/06/15 02:29:39;;;;;;;4.88;2.17;;;;;;;11.72;78.31;101335.19;5004084;28;20045;-83
2022/06/15 02:32:11;;;;;;;5.88;2.22;;;;;;;11.73;77.98;101314.25;5008141;28;20484;-86
2022/06/15 02:34:39;;;;;;;2.22;2.03;;;;;;;11.71;78.01;101329.09;4993981;28;20452;-83
2022/06/15 02:37:07;;;;;;;6.93;2.00;;;;;;;11.67;78.08;101326.50;5003619;28;20049;-83
2022/06/15 02:39:34;;;;;;;4.65;2.00;;;;;;;11.62;77.94;101316.00;5008843;28;20663;-83
2022/06/15 02:42:21;;;;;;;5.72;2.42;;;;;;;11.54;78.41;101309.94;5009628;28;20544;-83
2022/06/15 02:44:51;;;;;;;6.32;2.42;;;;;;;11.47;78.95;101316.03;5009586;28;20045;-83
2022/06/15 02:47:20;;;;;;;9.38;3.13;;;;;;;11.42;79.12;101311.69;4998905;28;20133;-83
2022/06/15 02:49:51;;;;;;;3.47;2.38;;;;;;;11.41;79.85;101315.19;4991361;28;20049;-84
2022/06/15 02:52:21;;;;;;;4.82;2.13;;;;;;;11.41;79.88;101307.31;5008371;28;20784;-84
2022/06/15 02:54:52;;;;;;;6.47;2.28;;;;;;;11.42;79.66;101308.19;5006938;28;20061;-84
2022/06/15 02:57:20;;;;;;;5.03;2.03;;;;;;;11.38;80.26;101304.72;5005017;28;20038;-86
2022/06/15 02:59:48;;;;;;;4.38;2.35;;;;;;;11.37;80.32;101307.34;5005478;28;20044;-84
2022/06/15 03:02:16;;;;;;;3.08;2.05;;;;;;;11.38;80.46;101309.06;5007427;28;20069;-86
2022/06/15 03:04:45;;;;;;;5.63;3.17;;;;;;;11.36;80.54;101306.44;4989488;28;20069;-83
2022/06/15 03:07:14;;;;;;;5.82;2.78;;;;;;;11.34;80.24;101302.06;5009724;28;20758;-85
2022/06/15 03:09:41;;;;;;;8.07;2.45;;;;;;;11.29;80.60;101306.47;5007864;28;20527;-82
2022/06/15 03:12:10;;;;;;;3.95;2.08;;;;;;;11.26;80.71;101312.56;5008571;28;20041;-82
2022/06/15 03:14:37;;;;;;;8.50;2.65;;;;;;;11.25;80.81;101314.34;5008770;28;20053;-83
2022/06/15 03:17:07;;;;;;;3.88;2.40;;;;;;;11.23;81.17;101308.22;5009351;28;20037;-84
2022/06/15 03:19:33;;;;;;;8.25;2.58;;;;;;;11.21;81.36;101323.06;5010123;28;20107;-84
2022/06/15 03:22:00;;;;;;;4.45;2.85;;;;;;;11.20;81.10;101317.84;5026188;28;20839;-80
2022/06/15 03:24:27;;;;;;;3.05;2.20;;;;;;;11.19;81.95;101314.34;5026479;28;20041;-82
2022/06/15 03:26:53;;;;;;;2.42;2.17;;;;;;;11.22;82.56;101323.94;4988097;28;20041;-87
2022/06/15 03:29:20;;;;;;;5.47;2.50;;;;;;;11.21;82.50;101314.31;5023161;28;20460;-84
2022/06/15 03:31:47;;;;;;;3.95;2.72;;;;;;;11.21;82.29;101325.69;5007773;28;20041;-82
2022/06/15 03:34:13;;;;;;;3.33;3.03;;;;;;;11.21;82.29;101315.22;5008683;28;20099;-86
2022/06/15 03:36:40;;;;;;;3.10;2.80;;;;;;;11.20;81.92;101312.59;5006952;28;20049;-82
2022/06/15 03:39:07;;;;;;;3.53;2.72;;;;;;;11.20;81.83;101312.59;5008035;28;20077;-83
2022/06/15 03:41:34;;;;;;;7.32;3.05;;;;;;;11.17;82.05;101313.47;5006855;28;20484;-81
2022/06/15 03:44:00;;;;;;;5.78;3.67;;;;;;;11.16;82.15;101305.59;5004179;28;20056;-86
2022/06/15 03:46:29;;;;;;;2.53;2.33;;;;;;;11.14;82.07;101302.97;4991089;28;20145;-85
2022/06/15 03:48:58;;;;;;;4.45;2.72;;;;;;;11.12;81.84;101302.13;5011418;28;20057;-88
2022/06/15 03:51:25;;;;;;;9.30;2.47;;;;;;;11.10;81.86;101306.47;4974931;28;20041;-84
2022/06/15 03:53:54;;;;;;;9.50;3.10;;;;;;;11.09;82.26;101304.72;5026650;28;20049;-84
2022/06/15 03:56:21;;;;;;;3.08;2.75;;;;;;;11.13;82.41;101310.84;5005443;28;20041;-84
2022/06/15 04:02:17;;;;;;;4.40;2.70;;;;;;;11.17;82.05;101307.34;4935151;28;20102;-87
2022/06/15 04:04:44;;;;;;;7.72;3.55;;;;;;;11.20;81.37;101299.50;4973369;28;20049;-86
2022/06/15 04:09:52;;;;;;;6.45;3.83;;;;;;;11.22;80.88;101300.34;5007715;28;20041;-84
2022/06/15 04:12:19;;;;;;;5.95;3.63;;;;;;;11.24;81.23;101302.09;5008469;28;20049;-84
2022/06/15 04:14:46;;;;;;;8.05;3.13;;;;;;;11.33;81.21;101302.94;4978580;28;20492;-84
2022/06/15 04:17:13;;;;;;;3.97;2.78;;;;;;;11.38;80.19;101301.19;4982046;28;20049;-84
2022/06/15 04:19:40;;;;;;;3.92;2.90;;;;;;;11.43;80.19;101299.44;5006589;28;20481;-87
2022/06/15 04:22:07;;;;;;;6.28;2.90;;;;;;;11.45;80.05;101292.47;4998086;28;20037;-85
2022/06/15 04:24:34;;;;;;;3.00;2.78;;;;;;;11.48;79.45;101297.69;5001402;28;20049;-84
2022/06/15 04:27:01;;;;;;;4.57;2.53;;;;;;;11.52;79.61;101288.94;5004921;28;20033;-84
2022/06/15 04:29:31;;;;;;;4.45;2.70;;;;;;;11.57;79.41;101295.03;5007685;28;20038;-84
2022/06/15 04:31:58;;;;;;;8.35;3.53;;;;;;;11.65;79.10;101291.53;5002023;28;20544;-84
2022/06/15 04:34:25;;;;;;;4.82;3.10;;;;;;;11.71;78.45;101299.38;5007411;28;20052;-84
2022/06/15 04:36:52;;;;;;;6.75;2.75;;;;;;;11.79;78.31;101301.97;5002449;28;20041;-84
2022/06/15 04:39:18;;;;;;;11.48;4.90;;;;;;;11.85;77.61;101299.31;5005945;28;20045;-84
2022/06/15 04:41:45;;;;;;;3.95;2.63;;;;;;;11.90;77.33;101301.06;5007628;28;20053;-84
2022/06/15 04:44:13;;;;;;;3.65;2.53;;;;;;;11.97;76.91;101301.03;4989115;28;20054;-88
2022/06/15 04:46:40;;;;;;;5.43;2.05;;;;;;;12.05;76.73;101307.16;5010208;28;20054;-85
2022/06/15 04:49:07;;;;;;;7.68;2.67;;;;;;;12.13;76.46;101301.88;5025902;28;20037;-83
2022/06/15 04:51:42;;;;;;;4.65;2.25;;;;;;;12.19;75.96;101301.81;5012392;28;20049;-81
2022/06/15 04:54:10;;;;;;;3.15;2.38;;;;;;;12.26;75.61;101295.66;5014746;28;20055;-88
2022/06/15 04:56:39;;;;;;;4.55;2.67;;;;;;;12.30;75.50;101305.25;5011691;28;20561;-86
2022/06/15 04:59:10;;;;;;;3.97;2.55;;;;;;;12.35;74.88;101295.59;5016772;28;20072;-86
2022/06/15 05:01:37;;;;;;;3.03;2.00;;;;;;;12.43;74.67;101300.81;5022501;28;20045;-85
2022/06/15 05:04:04;;;;;;;4.50;2.40;;;;;;;12.47;74.39;101299.91;5014387;28;20156;-85
2022/06/15 05:06:39;;;;;;;8.70;3.13;;;;;;;12.52;74.08;101298.13;5004744;28;20049;-86
2022/06/15 05:09:14;;;;;;;6.05;2.72;;;;;;;12.56;73.72;101299.84;4992133;28;20411;-84
2022/06/15 05:11:40;;;;;;;5.03;3.45;;;;;;;12.61;73.67;101298.97;4993012;28;20493;-86
2022/06/15 05:14:07;;;;;;;6.30;2.88;;;;;;;12.66;73.62;101298.03;5008357;28;20047;-84
2022/06/15 05:16:36;;;;;;;4.13;2.20;;;;;;;12.71;73.09;101304.13;4993876;28;20448;-84
2022/06/15 05:19:04;;;;;;;4.30;3.15;;;;;;;12.78;73.04;101297.06;5005256;28;20091;-84
2022/06/15 05:21:31;;;;;;;4.55;2.53;;;;;;;12.85;72.64;101296.16;5007947;28;20045;-85
2022/06/15 05:23:59;;;;;;;3.45;2.63;;;;;;;12.90;72.64;101301.34;5009734;28;20045;-86
2022/06/15 05:26:25;;;;;;;6.70;2.70;;;;;;;12.94;71.91;101302.22;5008467;28;20068;-83
2022/06/15 05:28:55;;;;;;;4.15;3.10;;;;;;;13.01;72.05;101298.63;5011426;28;20045;-83
2022/06/15 05:31:33;;;;;;;7.22;2.42;;;;;;;13.05;71.71;101300.38;5003915;28;20046;-82
2022/06/15 05:34:03;;;;;;;6.50;3.00;;;;;;;13.11;71.34;101299.44;4989608;28;20041;-83
2022/06/15 05:36:35;;;;;;;5.75;2.05;;;;;;;13.15;70.79;101303.78;5006716;28;20427;-84
2022/06/15 05:39:05;;;;;;;7.93;2.90;;;;;;;13.21;70.92;101304.56;5008774;28;20382;-82
2022/06/15 05:41:31;;;;;;;13.15;2.92;;;;;;;13.27;70.00;101303.66;5004032;28;20033;-83
2022/06/15 05:43:59;;;;;;;5.05;2.83;;;;;;;13.32;69.82;101306.22;5006768;28;20475;-82
2022/06/15 05:46:30;;;;;;;10.57;2.75;;;;;;;13.38;68.93;101307.06;5010140;28;20049;-83
2022/06/15 05:49:01;;;;;;;4.38;2.17;;;;;;;13.44;69.32;101308.78;5011871;28;20045;-82
2022/06/15 05:51:29;;;;;;;6.57;2.75;;;;;;;13.52;68.73;101311.34;5009512;28;20041;-83
2022/06/15 05:53:59;;;;;;;5.13;2.90;;;;;;;13.56;67.89;101306.00;5008856;28;20046;-84
2022/06/15 05:56:26;;;;;;;6.95;2.70;;;;;;;13.60;68.28;101298.97;4995314;28;20118;-85
2022/06/15 05:58:56;;;;;;;3.95;2.40;;;;;;;13.65;67.66;101302.41;5013690;28;20045;-85
2022/06/15 06:01:30;;;;;;;7.18;3.10;;;;;;;13.71;67.63;101306.72;5017859;28;20037;-83
2022/06/15 06:04:00;;;;;;;7.32;2.30;;;;;;;13.77;67.64;101298.78;5015300;28;20603;-84
2022/06/15 06:06:29;;;;;;;7.75;2.83;;;;;;;13.86;66.97;101300.44;5013915;28;20046;-85
2022/06/15 06:08:59;;;;;;;5.05;2.38;;;;;;;13.89;66.77;101300.38;5013741;28;20053;-85
2022/06/15 06:11:32;;;;;;;6.40;3.22;;;;;;;13.90;66.75;101297.72;4993839;28;20522;-86
2022/06/15 06:14:09;;;;;;;7.90;3.05;;;;;;;13.98;66.43;101288.88;4973943;28;20055;-84
2022/06/15 06:16:44;;;;;;;9.52;2.47;;;;;;;14.10;65.70;101299.22;5011992;28;20803;-84
2022/06/15 06:19:13;;;;;;;9.57;2.67;;;;;;;14.15;65.58;101296.53;5009904;28;20045;-84
2022/06/15 06:21:40;;;;;;;6.15;2.25;;;;;;;14.19;65.15;101300.88;5010892;28;20068;-83
2022/06/15 06:24:07;;;;;;;4.65;2.17;;;;;;;14.23;65.54;101295.53;5010639;28;20053;-82
2022/06/15 06:26:45;;;;;;;3.97;2.28;;;;;;;14.32;64.83;101291.91;4993416;28;20370;-83
2022/06/15 06:29:17;;;;;;;7.90;3.13;;;;;;;14.38;64.47;101302.34;5023740;28;20069;-83
2022/06/15 06:31:47;;;;;;;9.10;2.90;;;;;;;14.40;64.66;101299.69;5025490;28;20052;-84
2022/06/15 06:34:16;;;;;;;5.90;2.35;;;;;;;14.42;64.90;101303.19;5007208;28;20038;-83
2022/06/15 06:36:46;;;;;;;6.80;2.03;;;;;;;14.47;64.52;101300.47;5007651;28;20093;-83
2022/06/15 06:39:24;;;;;;;9.73;2.83;;;;;;;14.51;64.32;101299.53;5005759;28;20041;-82
2022/06/15 06:41:52;;;;;;;5.18;2.50;;;;;;;14.58;63.98;101302.97;4981836;28;20045;-82
2022/06/15 06:44:19;;;;;;;12.95;2.80;;;;;;;14.63;63.63;101309.91;5008260;28;20033;-82
2022/06/15 06:46:48;;;;;;;6.20;2.20;;;;;;;14.63;63.85;101299.34;4986261;28;20081;-82
2022/06/15 06:49:16;;;;;;;8.35;3.40;;;;;;;14.67;63.74;101310.75;5011627;28;20056;-83
2022/06/15 06:51:45;;;;;;;5.13;2.75;;;;;;;14.74;63.51;101307.13;4995563;28;20049;-84
2022/06/15 06:54:15;;;;;;;5.10;2.70;;;;;;;14.77;63.42;101307.09;5006804;28;20099;-84
2022/06/15 06:56:42;;;;;;;4.28;2.72;;;;;;;14.84;63.28;101306.06;5009509;28;20041;-83
2022/06/15 06:59:17;;;;;;;5.35;2.80;;;;;;;14.91;62.75;101308.63;4988939;28;20096;-83
2022/06/15 07:01:49;;;;;;;14.18;3.70;;;;;;;14.96;62.42;101307.63;4997505;28;20108;-84
2022/06/15 07:04:18;;;;;;;7.03;3.03;;;;;;;15.04;62.60;101300.50;4990178;28;20041;-83
2022/06/15 07:06:47;;;;;;;4.18;2.20;;;;;;;15.13;62.28;101295.94;5010468;28;20050;-84
2022/06/15 07:09:15;;;;;;;4.78;2.30;;;;;;;15.21;62.01;101302.84;4995324;28;20054;-82
2022/06/15 07:11:44;;;;;;;9.43;2.67;;;;;;;15.32;61.89;101307.91;5011226;28;20068;-84
2022/06/15 07:14:11;;;;;;;4.00;2.85;;;;;;;15.41;60.92;101306.88;5009487;28;20095;-83
2022/06/15 07:16:38;;;;;;;4.32;2.65;;;;;;;15.46;61.19;101299.75;5008727;28;20045;-85
2022/06/15 07:19:05;;;;;;;7.72;2.63;;;;;;;15.49;61.15;101296.19;5003552;28;20075;-85
2022/06/15 07:21:32;;;;;;;3.00;2.03;;;;;;;15.60;60.89;101290.69;5007086;28;20053;-83
2022/06/15 07:24:00;;;;;;;7.22;2.53;;;;;;;15.81;60.15;101290.28;5003161;28;20555;-83
2022/06/15 07:26:33;;;;;;;5.13;2.97;;;;;;;16.13;59.40;101294.00;4991618;28;20093;-83
2022/06/15 07:29:00;;;;;;;5.33;2.60;;;;;;;16.57;58.57;101287.72;5004841;28;20784;-83
2022/06/15 07:31:37;;;;;;;4.32;2.38;;;;;;;17.20;56.96;101286.19;5010476;28;20045;-84
2022/06/15 07:34:05;;;;;;;6.35;2.53;;;;;;;17.91;55.54;101281.56;4992659;28;20119;-84
2022/06/15 07:36:31;;;;;;;8.00;1.95;;;;;;;18.72;53.77;101285.28;4991381;28;20581;-85
2022/06/15 07:38:59;;;;;;;5.20;2.22;;;;;;;19.51;51.92;101280.78;4993077;28;20485;-85
2022/06/15 07:41:27;;;;;;;5.93;2.53;;;;;;;20.17;49.69;101280.13;4994397;28;20049;-82
2022/06/15 07:43:54;;;;;;;3.85;2.17;;;;;;;20.75;48.35;101285.84;4987895;28;20037;-83
2022/06/15 07:46:23;;;;;;;10.88;2.35;;;;;;;21.28;46.00;101284.50;5010450;28;20460;-83
2022/06/15 07:51:43;;;;;;;3.10;1.83;;;;;;;21.68;44.01;101272.09;5011698;28;20447;-82
2022/06/15 07:54:15;;;;;;;6.45;2.05;;;;;;;21.97;43.43;101267.22;5007487;28;20041;-84
2022/06/15 07:56:43;;;;;;;3.53;2.20;;;;;;;22.12;42.62;101268.28;5012196;28;20065;-84
2022/06/15 07:59:12;;;;;;;4.20;1.70;;;;;;;22.43;42.79;101261.50;4996448;28;20129;-82
2022/06/15 08:01:38;;;;;;;4.35;1.92;;;;;;;23.13;41.40;101258.88;5010183;28;20121;-84
2022/06/15 08:04:06;;;;;;;12.57;2.03;;;;;;;23.57;40.11;101254.78;4991708;28;20117;-83
2022/06/15 08:06:37;;;;;;;5.13;1.67;;;;;;;24.03;39.39;101254.13;5010496;28;20479;-84
2022/06/15 08:09:09;;;;;;;5.70;1.55;;;;;;;24.43;37.50;101258.06;4993527;28;20132;-84
2022/06/15 08:12:11;;;;;;;8.60;2.08;;;;;;;24.60;37.73;101265.09;5011602;28;20664;-83
2022/06/15 08:14:27;;;;;;;10.35;1.90;;;;;;;24.90;37.26;101256.25;5003968;28;20073;-83
2022/06/15 08:16:54;;;;;;;2.47;1.20;;;;;;;25.24;36.99;101258.69;5010421;28;20065;-84
2022/06/15 08:19:23;;;;;;;4.88;2.05;;;;;;;25.62;35.75;101257.28;5007975;28;20526;-84
2022/06/15 08:21:50;;;;;;;7.63;1.98;;;;;;;25.59;34.84;101258.31;4987811;28;20396;-86
2022/06/15 08:24:24;;;;;;;3.47;1.67;;;;;;;25.79;35.08;101264.25;4987089;28;20628;-84
2022/06/15 08:26:51;;;;;;;3.42;1.40;;;;;;;25.70;34.00;101268.41;5023433;28;20046;-82
2022/06/15 08:29:19;;;;;;;3.47;1.25;;;;;;;25.85;34.50;101262.06;5007696;28;20120;-87
2022/06/15 08:31:46;;;;;;;5.78;1.33;;;;;;;26.58;32.76;101265.41;4993693;28;20052;-84
2022/06/15 08:34:16;;;;;;;4.15;1.70;;;;;;;26.85;33.17;101262.72;5003009;28;20048;-85
2022/06/15 08:36:43;;;;;;;2.28;1.30;;;;;;;27.29;31.93;101255.22;4993959;28;20037;-84
2022/06/15 08:39:10;;;;;;;3.58;1.10;;;;;;;27.77;31.26;101249.19;5010812;28;20048;-85
2022/06/15 08:41:38;;;;;;;2.53;1.50;;;;;;;27.62;30.69;101251.13;5011159;28;20041;-83
2022/06/15 08:44:49;;;;;;;4.68;1.30;;;;;;;27.26;31.43;101251.88;5009649;28;20109;-90
2022/06/15 08:47:51;;;;;;;4.05;1.42;;;;;;;27.60;30.75;101247.72;5011999;28;20045;-85
2022/06/15 08:50:38;;;;;;;4.78;1.77;;;;;;;28.00;29.69;101250.22;5015145;28;20055;-86
2022/06/15 08:53:25;;;;;;;5.13;1.30;;;;;;;28.39;29.13;101250.94;5003293;28;20149;-86
2022/06/15 08:56:01;;;;;;;3.53;1.52;;;;;;;28.47;29.15;101253.03;5019025;28;20071;-83
2022/06/15 08:58:52;;;;;;;2.70;1.23;;;;;;;28.60;28.18;101249.41;5009922;28;20049;-84
2022/06/15 09:02:07;;;;;;;4.55;1.40;;;;;;;28.85;27.86;101254.69;4987698;28;20057;-86
2022/06/15 09:04:55;;;;;;;6.45;1.40;;;;;;;29.20;27.92;101239.41;5022051;28;20049;-85
2022/06/15 09:07:58;;;;;;;3.75;1.00;;;;;;;30.35;26.50;101237.38;5006162;28;20041;-84
2022/06/15 09:10:51;;;;;;;4.20;0.90;;;;;;;31.37;24.71;101235.06;4988389;28;20077;-83
2022/06/15 09:13:27;;;;;;;2.78;0.88;;;;;;;31.35;24.22;101240.63;5009540;28;20030;-87
2022/06/15 09:16:10;;;;;;;1.92;0.85;;;;;;;31.20;24.96;101248.25;5020026;28;20045;-84
2022/06/15 09:18:48;;;;;;;2.55;1.20;;;;;;;31.68;24.33;101244.09;5021726;28;20108;-83
2022/06/15 09:21:27;;;;;;;2.83;1.30;;;;;;;31.94;24.84;101249.84;4987006;28;20049;-85
2022/06/15 09:24:08;;;;;;;1.98;1.30;;;;;;;32.27;23.75;101244.22;5008241;28;20649;-87
2022/06/15 09:26:38;;;;;;;3.78;1.25;;;;;;;32.78;23.45;101237.66;4990862;28;20033;-85
2022/06/15 09:29:12;;;;;;;2.88;1.08;;;;;;;32.82;22.87;101243.66;5027554;28;20045;-88
2022/06/15 09:31:57;;;;;;;5.90;1.20;;;;;;;33.11;22.36;101240.84;5007565;28;20048;-83
2022/06/15 09:34:42;;;;;;;2.28;1.27;;;;;;;33.18;21.89;101249.28;5002491;28;20054;-83
2022/06/15 09:37:19;;;;;;;2.38;1.00;;;;;;;33.28;22.08;101242.00;5007032;28;20125;-84
2022/06/15 09:39:48;;;;;;;8.13;1.45;;;;;;;33.42;22.02;101237.91;5007041;28;20049;-84
2022/06/15 09:42:24;;;;;;;3.05;0.95;;;;;;;33.84;20.91;101241.19;4990526;28;20064;-85
2022/06/15 09:45:12;;;;;;;6.68;1.55;;;;;;;33.86;20.69;101239.13;5005999;28;20792;-85
2022/06/15 09:48:23;;;;;;;3.60;1.70;;;;;;;33.96;20.91;101237.22;5009484;28;20503;-82
2022/06/15 09:50:59;;;;;;;1.15;0.93;;;;;;;33.86;20.90;101231.88;5022702;28;20046;-89
2022/06/15 09:54:16;;;;;;;4.50;0.80;;;;;;;34.22;20.25;101226.44;5007450;28;20057;-85
2022/06/15 09:56:43;;;;;;;2.40;0.95;;;;;;;34.87;21.04;101224.50;5004062;28;20068;-85
2022/06/15 09:59:14;;;;;;;5.80;1.40;;;;;;;35.44;20.11;101227.53;5005177;28;20412;-84
2022/06/15 10:01:45;;;;;;;4.22;1.15;;;;;;;35.68;19.79;101220.47;5008742;28;20107;-87
2022/06/15 10:04:24;;;;;;;4.57;1.00;;;;;;;36.14;19.22;101231.03;4988768;28;20558;-84
2022/06/15 10:07:07;;;;;;;1.60;1.48;;;;;;;36.45;18.98;101224.91;4989359;28;20420;-86
2022/06/15 10:09:39;;;;;;;6.88;1.42;;;;;;;35.75;18.69;101223.41;5004964;28;20048;-83
2022/06/15 10:13:04;;;;;;;3.20;1.05;;;;;;;35.61;19.64;101224.91;4981841;28;20049;-86
2022/06/15 10:16:00;;;;;;;3.03;1.13;;;;;;;35.99;19.11;101222.63;4964743;28;20054;-86
2022/06/15 10:18:43;;;;;;;1.95;0.95;;;;;;;36.20;19.09;101224.88;4990597;28;20575;-84
2022/06/15 10:21:15;;;;;;;1.95;1.00;;;;;;;36.47;18.58;101222.88;5009448;28;20053;-82
2022/06/15 10:24:17;;;;;;;6.30;1.48;;;;;;;36.03;18.98;101221.28;5010135;28;20076;-89
2022/06/15 10:26:50;;;;;;;2.50;0.98;;;;;;;35.53;20.20;101222.16;5024038;28;20045;-86
2022/06/15 10:29:18;;;;;;;1.30;0.93;;;;;;;35.82;19.91;101213.53;5006927;28;20057;-87
2022/06/15 10:32:10;;;;;;;2.08;0.93;;;;;;;37.06;18.73;101216.34;5027696;28;20048;-83
2022/06/15 10:35:03;;;;;;;2.15;0.77;;;;;;;38.41;17.05;101209.84;5022840;28;20041;-85
2022/06/15 10:37:48;;;;;;;4.38;1.13;;;;;;;39.23;16.30;101210.94;5005559;28;20103;-84
2022/06/15 10:40:25;;;;;;;2.25;0.80;;;;;;;38.83;16.79;101207.59;5007739;28;20481;-86
2022/06/15 10:43:03;;;;;;;7.93;1.85;;;;;;;38.79;17.15;101209.03;4982200;28;20141;-84
2022/06/15 10:45:42;;;;;;;2.42;1.02;;;;;;;39.13;16.38;101215.81;5010515;28;20040;-89
2022/06/15 10:48:18;;;;;;;3.17;0.90;;;;;;;38.61;17.00;101210.16;5008814;28;20033;-84
2022/06/15 10:51:05;;;;;;;4.40;1.67;;;;;;;38.97;16.72;101211.38;5009762;28;20046;-85
2022/06/15 10:53:42;;;;;;;4.60;1.45;;;;;;;38.52;16.42;101214.03;5007139;28;20141;-88
2022/06/15 11:02:37;;;;;;;5.25;1.65;;;;;;;38.79;16.46;101192.59;5025078;28;20041;-86
2022/06/15 11:05:10;;;;;;;3.90;1.98;;;;;;;39.53;15.92;101187.09;4991121;28;20048;-85
2022/06/15 11:07:50;;;;;;;1.33;1.02;;;;;;;40.23;15.79;101186.56;5027022;28;20045;-83
2022/06/15 11:10:31;;;;;;;2.70;1.30;;;;;;;40.36;15.35;101188.59;4990383;28;20203;-83
2022/06/15 11:13:23;;;;;;;2.72;0.88;;;;;;;40.15;15.38;101176.59;5002474;28;20037;-88
2022/06/15 11:19:04;;;;;;;0.98;0.60;;;;;;;39.94;15.32;101176.59;4955881;28;20062;-85
2022/06/15 11:21:50;;;;;;;1.17;0.68;;;;;;;39.37;15.52;101177.22;4964174;28;20059;-84
2022/06/15 11:24:41;;;;;;;1.88;0.77;;;;;;;38.83;15.74;101172.88;4968549;28;20049;-84
2022/06/15 11:27:34;;;;;;;1.75;0.95;;;;;;;38.11;16.36;101166.00;5010945;28;20049;-85
2022/06/15 11:30:18;;;;;;;1.15;0.88;;;;;;;39.30;16.51;101157.09;5003687;28;20041;-86
2022/06/15 11:32:57;;;;;;;2.72;0.88;;;;;;;40.69;15.22;101168.78;5006318;28;20124;-84
2022/06/15 11:35:39;;;;;;;3.13;0.70;;;;;;;41.39;13.94;101163.28;5003721;28;20049;-86
2022/06/15 11:38:34;;;;;;;1.70;1.10;;;;;;;41.83;13.95;101155.59;5027948;28;20213;-86
2022/06/15 11:41:23;;;;;;;3.25;1.10;;;;;;;42.10;13.26;101147.34;5007106;28;20057;-84
2022/06/15 11:43:52;;;;;;;5.10;1.35;;;;;;;41.25;14.39;101151.38;5008760;28;20056;-87
2022/06/15 11:46:40;;;;;;;4.30;1.23;;;;;;;40.36;15.06;101150.19;5015565;28;20041;-83
2022/06/15 11:49:31;;;;;;;2.75;1.15;;;;;;;40.61;14.31;101147.88;5012625;28;20069;-88
2022/06/15 11:52:22;;;;;;;2.78;1.20;;;;;;;40.27;14.46;101140.41;5011413;28;20045;-84
2022/06/15 11:55:08;;;;;;;3.33;1.05;;;;;;;40.31;14.67;101145.31;4986154;28;20060;-86
2022/06/15 11:58:30;;;;;;;2.95;1.27;;;;;;;40.28;14.73;101139.38;5011383;28;20128;-84
2022/06/15 12:01:39;;;;;;;1.87;1.37;;;;;;;40.89;13.87;101132.38;5034481;28;20084;-83
2022/06/15 12:04:39;;;;;;;3.42;1.20;;;;;;;41.55;13.42;101133.75;4995137;28;20041;-86
2022/06/15 12:07:39;;;;;;;2.72;0.98;;;;;;;41.66;13.25;101135.88;5005221;28;20099;-86
2022/06/15 12:10:38;;;;;;;1.30;0.90;;;;;;;41.57;13.77;101135.22;4987448;28;20533;-84
2022/06/15 12:13:36;;;;;;;1.08;0.70;;;;;;;41.57;13.87;101134.41;5022158;28;20042;-86
2022/06/15 12:16:26;;;;;;;1.75;1.00;;;;;;;42.29;12.77;101124.53;5007550;28;20120;-85
2022/06/15 12:19:20;;;;;;;4.05;1.15;;;;;;;42.96;13.18;101121.63;5008031;28;20136;-87
2022/06/15 12:21:57;;;;;;;2.67;1.23;;;;;;;43.63;12.29;101118.56;5007786;28;20501;-84